Time;durP1;ratioP1;P1;durP2;ratioP2;P2;SDS_P1;SDS_P2;PMS_P1;PMS_P2;Temp;Humidity;BMP_temperature;BMP_pressure;BME280_temperature;BME280_humidity;BME280_pressure;Samples;Min_cycle;Max_cycle;Signal;HPM_P1;HPM_P2
2021/05/16 00:02:21;;;;;;;6.97;6.28;;;10.60;96.70;;;;;;5094979;28;20314;-69
2021/05/16 00:04:47;;;;;;;7.13;6.38;;;10.60;96.70;;;;;;5104775;28;20068;-68
2021/05/16 00:07:13;;;;;;;7.75;6.95;;;10.60;96.80;;;;;;5098765;28;20365;-68
2021/05/16 00:09:40;;;;;;;7.63;7.03;;;10.50;96.80;;;;;;5102250;28;20036;-68
2021/05/16 00:12:11;;;;;;;8.23;7.53;;;10.50;96.80;;;;;;5096040;28;20042;-69
2021/05/16 00:14:38;;;;;;;8.77;7.88;;;10.50;96.90;;;;;;5100613;28;20031;-68
2021/05/16 00:17:05;;;;;;;8.45;7.65;;;10.50;97.00;;;;;;5097150;28;20051;-68
2021/05/16 00:19:32;;;;;;;9.10;8.20;;;10.50;97.00;;;;;;5103632;28;20035;-68
2021/05/16 00:21:58;;;;;;;7.93;7.28;;;10.50;97.00;;;;;;5099524;28;20077;-68
2021/05/16 00:24:24;;;;;;;9.55;8.75;;;10.50;97.00;;;;;;5105783;28;20063;-68
2021/05/16 00:26:50;;;;;;;9.23;7.95;;;10.50;97.10;;;;;;5092707;28;20047;-68
2021/05/16 00:29:16;;;;;;;9.52;8.73;;;10.50;97.10;;;;;;5104311;28;20047;-68
2021/05/16 00:31:42;;;;;;;10.07;9.02;;;10.50;97.10;;;;;;5097948;28;25546;-68
2021/05/16 00:34:08;;;;;;;9.02;8.30;;;10.50;97.10;;;;;;5105056;28;20118;-68
2021/05/16 00:36:34;;;;;;;10.40;9.40;;;10.50;97.10;;;;;;5098469;28;20511;-68
2021/05/16 00:39:00;;;;;;;9.75;8.82;;;10.50;97.20;;;;;;5089469;28;20043;-68
2021/05/16 00:41:26;;;;;;;9.38;8.57;;;10.50;97.10;;;;;;5096101;28;20032;-68
2021/05/16 00:43:52;;;;;;;10.32;9.32;;;10.50;97.10;;;;;;5100426;28;20451;-68
2021/05/16 00:46:18;;;;;;;10.77;9.88;;;10.50;97.10;;;;;;5097916;28;20352;-68
2021/05/16 00:48:44;;;;;;;11.55;10.45;;;10.50;97.20;;;;;;5096179;28;20043;-68
2021/05/16 00:51:12;;;;;;;11.65;10.55;;;10.50;97.20;;;;;;5097704;28;20032;-68
2021/05/16 00:53:39;;;;;;;12.10;10.90;;;10.50;97.30;;;;;;5094741;28;20130;-68
2021/05/16 00:56:06;;;;;;;11.70;10.50;;;10.40;97.30;;;;;;5101998;28;20105;-68
2021/05/16 00:58:32;;;;;;;11.88;10.77;;;10.40;97.40;;;;;;5095747;28;20062;-68
2021/05/16 01:01:00;;;;;;;11.05;9.73;;;10.40;97.50;;;;;;5100867;28;20034;-68
2021/05/16 01:03:30;;;;;;;12.95;11.63;;;10.40;97.50;;;;;;5080096;28;20036;-68
2021/05/16 01:05:56;;;;;;;12.75;11.48;;;10.40;97.60;;;;;;5104445;28;20056;-68
2021/05/16 01:08:22;;;;;;;12.38;11.30;;;10.40;97.60;;;;;;5099155;28;20114;-68
2021/05/16 01:10:49;;;;;;;13.80;12.60;;;10.40;97.70;;;;;;5098887;28;20092;-68
2021/05/16 01:13:15;;;;;;;13.70;12.45;;;10.40;97.70;;;;;;5096874;28;20043;-68
2021/05/16 01:15:44;;;;;;;14.57;13.18;;;10.30;97.70;;;;;;5102684;28;20525;-68
2021/05/16 01:18:10;;;;;;;14.85;13.52;;;10.30;97.70;;;;;;5096900;28;20039;-69
2021/05/16 01:20:39;;;;;;;15.10;13.70;;;10.30;97.80;;;;;;5101053;28;20039;-69
2021/05/16 01:23:08;;;;;;;16.10;14.45;;;10.30;97.80;;;;;;5099357;28;20032;-68
2021/05/16 01:25:38;;;;;;;14.80;13.48;;;10.30;97.90;;;;;;5076457;28;20447;-68
2021/05/16 01:28:06;;;;;;;17.42;15.80;;;10.30;98.00;;;;;;5105318;28;20051;-68
2021/05/16 01:30:31;;;;;;;17.67;16.02;;;10.30;98.00;;;;;;5098723;28;20104;-68
2021/05/16 01:32:57;;;;;;;17.80;16.20;;;10.30;98.10;;;;;;5103211;28;20032;-68
2021/05/16 01:35:24;;;;;;;16.63;15.13;;;10.30;98.20;;;;;;5095089;28;20491;-69
2021/05/16 01:37:51;;;;;;;18.70;17.05;;;10.30;98.20;;;;;;5098153;28;20132;-69
2021/05/16 01:40:19;;;;;;;18.90;17.08;;;10.30;98.20;;;;;;5101556;28;20040;-68
2021/05/16 01:42:50;;;;;;;17.40;15.80;;;10.30;98.30;;;;;;5107570;28;20394;-68
2021/05/16 01:45:18;;;;;;;18.70;16.98;;;10.30;98.40;;;;;;5097403;28;20075;-68
2021/05/16 01:47:43;;;;;;;19.02;17.27;;;10.40;98.40;;;;;;5108690;28;20059;-68
2021/05/16 01:50:14;;;;;;;19.60;17.77;;;10.40;98.40;;;;;;5101153;28;20040;-68
2021/05/16 01:52:42;;;;;;;17.80;16.10;;;10.50;98.50;;;;;;5109501;27;20564;-68
2021/05/16 01:55:10;;;;;;;18.65;16.85;;;10.50;98.50;;;;;;5103349;28;20057;-68
2021/05/16 01:57:38;;;;;;;19.67;17.90;;;10.50;98.50;;;;;;5106295;28;20035;-68
2021/05/16 02:00:09;;;;;;;20.30;18.33;;;10.50;98.50;;;;;;5097512;28;20186;-68
2021/05/16 02:02:36;;;;;;;20.23;18.45;;;10.60;98.60;;;;;;5108774;28;20047;-68
2021/05/16 02:05:02;;;;;;;20.45;18.48;;;10.60;98.50;;;;;;5082675;28;20052;-68
2021/05/16 02:07:29;;;;;;;21.40;19.30;;;10.60;98.50;;;;;;5086155;28;20521;-68
2021/05/16 02:09:54;;;;;;;22.67;20.13;;;10.60;98.50;;;;;;5085215;28;20036;-68
2021/05/16 02:12:22;;;;;;;22.35;20.35;;;10.60;98.50;;;;;;5082003;28;20044;-68
2021/05/16 02:14:48;;;;;;;21.80;19.73;;;10.60;98.50;;;;;;5087172;28;20097;-68
2021/05/16 02:17:14;;;;;;;21.60;19.65;;;10.60;98.40;;;;;;5082694;28;20036;-68
2021/05/16 02:19:41;;;;;;;21.15;19.15;;;10.50;98.40;;;;;;5084978;28;20036;-68
2021/05/16 02:22:07;;;;;;;23.55;21.25;;;10.50;98.50;;;;;;5078388;28;20174;-69
2021/05/16 02:24:33;;;;;;;24.10;21.80;;;10.50;98.50;;;;;;5085288;28;20119;-68
2021/05/16 02:27:00;;;;;;;21.85;19.80;;;10.50;98.50;;;;;;5078363;28;20123;-68
2021/05/16 02:29:30;;;;;;;20.95;18.85;;;10.50;98.60;;;;;;5083091;28;20175;-68
2021/05/16 02:31:57;;;;;;;22.13;20.00;;;10.50;98.60;;;;;;5079340;28;20033;-68
2021/05/16 02:34:23;;;;;;;20.67;18.80;;;10.50;98.60;;;;;;5084607;28;20036;-68
2021/05/16 02:36:49;;;;;;;21.73;19.73;;;10.60;98.70;;;;;;5075417;28;20033;-68
2021/05/16 02:39:15;;;;;;;20.00;18.20;;;10.50;98.70;;;;;;5085411;28;20391;-69
2021/05/16 02:41:41;;;;;;;20.88;18.88;;;10.50;98.60;;;;;;5079726;28;20404;-68
2021/05/16 02:44:08;;;;;;;20.73;18.77;;;10.60;98.60;;;;;;5084723;28;20464;-68
2021/05/16 02:46:34;;;;;;;21.00;18.75;;;10.50;98.60;;;;;;5081229;28;20507;-68
2021/05/16 02:49:00;;;;;;;22.58;19.42;;;10.50;98.60;;;;;;5083078;28;20032;-68
2021/05/16 02:51:25;;;;;;;20.23;18.27;;;10.40;98.60;;;;;;5083045;28;20086;-68
2021/05/16 02:53:51;;;;;;;20.48;18.42;;;10.50;98.60;;;;;;5076540;28;20502;-68
2021/05/16 02:56:17;;;;;;;19.65;17.63;;;10.40;98.60;;;;;;5084047;28;20052;-68
2021/05/16 02:58:44;;;;;;;21.02;18.33;;;10.40;98.70;;;;;;5074848;28;20052;-69
2021/05/16 03:01:11;;;;;;;20.85;18.70;;;10.40;98.60;;;;;;5085377;28;20116;-69
2021/05/16 03:03:38;;;;;;;19.17;17.23;;;10.30;98.60;;;;;;5079751;28;20487;-68
2021/05/16 03:06:05;;;;;;;20.50;18.42;;;10.30;98.70;;;;;;5085340;28;20509;-68
2021/05/16 03:08:31;;;;;;;20.15;17.35;;;10.30;98.60;;;;;;5070383;28;20106;-68
2021/05/16 03:10:57;;;;;;;23.90;18.92;;;10.30;98.60;;;;;;5085292;28;20048;-69
2021/05/16 03:13:22;;;;;;;23.90;18.95;;;10.30;98.60;;;;;;5077680;28;20116;-69
2021/05/16 03:15:48;;;;;;;23.05;19.02;;;10.30;98.70;;;;;;5086427;28;20082;-68
2021/05/16 03:18:15;;;;;;;25.75;20.02;;;10.30;98.70;;;;;;5079053;28;20041;-69
2021/05/16 03:20:40;;;;;;;24.48;20.23;;;10.20;98.70;;;;;;5083005;28;20349;-68
2021/05/16 03:23:06;;;;;;;24.70;20.60;;;10.30;98.70;;;;;;5076910;28;20043;-68
2021/05/16 03:25:35;;;;;;;26.95;19.90;;;10.20;98.60;;;;;;5081523;28;20427;-68
2021/05/16 03:28:01;;;;;;;25.52;20.85;;;10.30;98.70;;;;;;5084658;28;20035;-69
2021/05/16 03:30:27;;;;;;;26.10;20.27;;;10.20;98.90;;;;;;5074273;28;20040;-68
2021/05/16 03:32:53;;;;;;;23.45;20.27;;;10.20;98.60;;;;;;5084667;28;20066;-68
2021/05/16 03:35:18;;;;;;;27.10;21.10;;;10.20;98.60;;;;;;5081082;28;20115;-68
2021/05/16 03:37:44;;;;;;;28.95;21.33;;;10.30;98.60;;;;;;5081215;28;20040;-68
2021/05/16 03:40:10;;;;;;;25.88;20.38;;;10.30;98.70;;;;;;5077485;28;20039;-69
2021/05/16 03:42:37;;;;;;;26.90;20.67;;;10.30;98.70;;;;;;5087277;28;20249;-69
2021/05/16 03:45:05;;;;;;;27.45;19.98;;;10.30;98.70;;;;;;5078249;28;20071;-69
2021/05/16 03:47:31;;;;;;;24.00;19.85;;;10.30;98.70;;;;;;5083619;28;20036;-68
2021/05/16 03:49:57;;;;;;;24.42;20.52;;;10.40;98.70;;;;;;5073462;28;20046;-68
2021/05/16 03:52:24;;;;;;;21.50;19.23;;;10.30;98.70;;;;;;5083462;28;20040;-68
2021/05/16 03:54:50;;;;;;;24.05;19.92;;;10.30;98.70;;;;;;5082080;28;20061;-68
2021/05/16 03:57:17;;;;;;;24.17;18.38;;;10.40;98.80;;;;;;5081952;28;20048;-68
2021/05/16 03:59:44;;;;;;;21.83;19.20;;;10.40;98.70;;;;;;5077741;28;20042;-68
2021/05/16 04:02:10;;;;;;;22.98;19.50;;;10.30;98.70;;;;;;5079077;28;20098;-68
2021/05/16 04:04:36;;;;;;;25.50;20.92;;;10.40;98.70;;;;;;5084962;28;20407;-69
2021/05/16 04:07:02;;;;;;;25.00;21.15;;;10.30;98.70;;;;;;5099474;28;20046;-69
2021/05/16 04:09:28;;;;;;;26.13;21.58;;;10.40;98.70;;;;;;5103466;28;20406;-69
2021/05/16 04:11:54;;;;;;;28.05;20.20;;;10.30;98.70;;;;;;5096778;28;20036;-69
2021/05/16 04:14:22;;;;;;;27.63;20.80;;;10.30;98.70;;;;;;5102460;28;20040;-69
2021/05/16 04:16:48;;;;;;;26.90;21.10;;;10.30;98.70;;;;;;5099224;28;20046;-69
2021/05/16 04:19:14;;;;;;;28.42;20.40;;;10.40;98.70;;;;;;5102631;28;20028;-69
2021/05/16 04:21:40;;;;;;;24.30;19.23;;;10.30;98.60;;;;;;5095747;28;20034;-69
2021/05/16 04:24:06;;;;;;;27.70;19.08;;;10.30;98.60;;;;;;5101564;28;20035;-69
2021/05/16 04:26:32;;;;;;;23.75;18.88;;;10.30;98.60;;;;;;5094267;28;20051;-69
2021/05/16 04:28:58;;;;;;;22.20;18.80;;;10.30;98.70;;;;;;5102742;28;20044;-69
2021/05/16 04:31:24;;;;;;;26.63;20.00;;;10.30;98.70;;;;;;5098889;28;20498;-69
2021/05/16 04:33:50;;;;;;;21.95;19.17;;;10.20;98.70;;;;;;5087872;28;20044;-68
2021/05/16 04:36:16;;;;;;;23.60;19.52;;;10.20;98.80;;;;;;5098110;28;20032;-69
2021/05/16 04:38:45;;;;;;;24.40;19.00;;;10.30;98.80;;;;;;5100346;28;20096;-69
2021/05/16 04:41:11;;;;;;;27.15;20.33;;;10.40;98.90;;;;;;5092126;28;20095;-69
2021/05/16 04:43:37;;;;;;;24.92;20.73;;;10.40;98.90;;;;;;5105384;28;20040;-69
2021/05/16 04:46:03;;;;;;;27.70;21.02;;;10.40;98.90;;;;;;5108160;28;20293;-69
2021/05/16 04:48:29;;;;;;;29.10;20.67;;;10.50;99.30;;;;;;5095103;28;20027;-69
2021/05/16 04:50:55;;;;;;;29.02;21.50;;;10.50;99.00;;;;;;5104078;28;20039;-69
2021/05/16 04:53:22;;;;;;;30.13;22.05;;;10.60;99.00;;;;;;5097991;28;20035;-68
2021/05/16 04:55:48;;;;;;;25.08;20.05;;;10.70;99.00;;;;;;5102010;28;20396;-68
2021/05/16 04:58:14;;;;;;;28.65;21.25;;;10.70;99.00;;;;;;5095609;28;20386;-69
2021/05/16 05:00:40;;;;;;;31.80;20.95;;;10.80;99.00;;;;;;5102550;28;20059;-68
2021/05/16 05:03:06;;;;;;;28.98;21.13;;;10.90;98.90;;;;;;5081184;28;20478;-68
2021/05/16 05:05:32;;;;;;;27.40;21.13;;;10.90;98.90;;;;;;5099861;28;20066;-68
2021/05/16 05:08:00;;;;;;;24.48;20.88;;;11.00;98.90;;;;;;5093020;28;20040;-68
2021/05/16 05:10:25;;;;;;;29.23;22.08;;;11.00;98.80;;;;;;5102584;28;20070;-68
2021/05/16 05:12:51;;;;;;;27.42;21.80;;;11.00;98.80;;;;;;5095193;28;20060;-68
2021/05/16 05:15:17;;;;;;;27.15;21.40;;;11.10;98.90;;;;;;5102606;28;20499;-68
2021/05/16 05:17:43;;;;;;;26.38;20.70;;;11.10;98.80;;;;;;5100166;28;20039;-68
2021/05/16 05:20:09;;;;;;;26.90;20.52;;;11.10;98.80;;;;;;5098005;28;20044;-69
2021/05/16 05:22:35;;;;;;;29.48;21.40;;;11.10;98.70;;;;;;5092210;28;20067;-69
2021/05/16 05:25:01;;;;;;;30.15;19.30;;;11.20;98.70;;;;;;5101989;28;20039;-69
2021/05/16 05:27:27;;;;;;;28.45;20.38;;;11.30;98.70;;;;;;5108334;28;20039;-69
2021/05/16 05:29:53;;;;;;;28.02;20.45;;;11.40;98.60;;;;;;5098672;28;20059;-69
2021/05/16 05:32:20;;;;;;;26.98;20.05;;;11.40;98.60;;;;;;5099424;28;20040;-69
2021/05/16 05:34:46;;;;;;;23.02;19.10;;;11.50;98.50;;;;;;5101849;28;20071;-69
2021/05/16 05:37:12;;;;;;;23.05;19.27;;;11.50;98.40;;;;;;5106262;28;20059;-69
2021/05/16 05:39:38;;;;;;;25.35;20.52;;;11.60;98.40;;;;;;5099012;28;20031;-69
2021/05/16 05:42:04;;;;;;;28.35;19.33;;;11.60;98.30;;;;;;5104646;28;20032;-69
2021/05/16 05:44:36;;;;;;;27.90;19.35;;;11.70;98.20;;;;;;5098718;28;20534;-69
2021/05/16 05:47:02;;;;;;;23.35;19.60;;;11.80;98.10;;;;;;5101991;28;20043;-69
2021/05/16 05:49:28;;;;;;;27.20;19.50;;;11.80;98.00;;;;;;5096478;28;20107;-69
2021/05/16 05:51:54;;;;;;;23.52;19.90;;;11.90;98.00;;;;;;5103098;28;20473;-69
2021/05/16 05:54:20;;;;;;;26.52;20.33;;;11.90;98.00;;;;;;5095071;28;20109;-69
2021/05/16 05:56:46;;;;;;;25.42;19.60;;;11.90;97.90;;;;;;5104718;28;20406;-69
2021/05/16 05:59:13;;;;;;;26.58;19.50;;;11.90;97.80;;;;;;5094642;28;20036;-69
2021/05/16 06:01:40;;;;;;;26.17;19.42;;;11.90;97.80;;;;;;5098814;28;20058;-69
2021/05/16 06:04:05;;;;;;;23.45;18.90;;;11.90;97.60;;;;;;5097639;28;20056;-69
2021/05/16 06:06:31;;;;;;;27.75;18.70;;;11.90;97.50;;;;;;5076803;28;20036;-69
2021/05/16 06:08:57;;;;;;;24.77;18.20;;;11.90;97.50;;;;;;5085755;28;20032;-69
2021/05/16 06:11:23;;;;;;;23.35;18.48;;;11.90;97.30;;;;;;5077636;28;20038;-69
2021/05/16 06:13:49;;;;;;;25.40;18.90;;;12.00;97.10;;;;;;5079896;28;20456;-69
2021/05/16 06:16:15;;;;;;;25.00;18.13;;;11.90;97.10;;;;;;5077560;28;20025;-69
2021/05/16 06:18:41;;;;;;;25.92;18.50;;;12.00;97.10;;;;;;5080373;28;20562;-69
2021/05/16 06:21:06;;;;;;;27.20;18.67;;;11.90;97.10;;;;;;5072669;28;20040;-69
2021/05/16 06:23:36;;;;;;;24.35;18.42;;;11.90;97.10;;;;;;5079727;28;20032;-69
2021/05/16 06:26:02;;;;;;;29.52;18.40;;;11.90;97.20;;;;;;5077211;28;20037;-69
2021/05/16 06:28:28;;;;;;;25.83;18.73;;;11.90;97.10;;;;;;5087690;28;20062;-69
2021/05/16 06:30:54;;;;;;;27.25;17.50;;;12.00;97.10;;;;;;5075773;28;20399;-69
2021/05/16 06:33:20;;;;;;;26.17;17.75;;;11.90;97.10;;;;;;5084519;28;20126;-69
2021/05/16 06:35:46;;;;;;;23.42;15.90;;;12.00;97.20;;;;;;5083419;28;20050;-69
2021/05/16 06:38:11;;;;;;;25.55;15.82;;;12.00;97.20;;;;;;5088393;28;20031;-70
2021/05/16 06:40:37;;;;;;;21.58;14.75;;;12.10;97.30;;;;;;5081051;28;20043;-69
2021/05/16 06:43:05;;;;;;;24.25;15.15;;;12.10;97.20;;;;;;5087894;28;20388;-69
2021/05/16 06:45:31;;;;;;;23.27;15.20;;;12.20;97.20;;;;;;5086605;28;20115;-69
2021/05/16 06:47:57;;;;;;;22.80;14.82;;;12.20;97.10;;;;;;5079558;28;20032;-69
2021/05/16 06:50:23;;;;;;;24.83;15.15;;;12.30;97.10;;;;;;5085424;28;20479;-69
2021/05/16 06:52:49;;;;;;;19.70;14.32;;;12.40;97.10;;;;;;5079566;28;20044;-69
2021/05/16 06:55:14;;;;;;;24.30;13.82;;;12.40;97.00;;;;;;5079715;28;20101;-69
2021/05/16 06:57:42;;;;;;;22.08;12.98;;;12.50;96.80;;;;;;5079600;28;20035;-69
2021/05/16 07:00:09;;;;;;;22.77;12.80;;;12.60;96.60;;;;;;5083031;28;20036;-69
2021/05/16 07:02:35;;;;;;;21.52;12.30;;;12.70;96.50;;;;;;5077029;28;20051;-70
2021/05/16 07:05:01;;;;;;;19.25;11.40;;;12.80;96.40;;;;;;5095784;28;20044;-69
2021/05/16 07:07:27;;;;;;;19.58;11.65;;;12.90;96.20;;;;;;5100834;28;20503;-69
2021/05/16 07:09:52;;;;;;;21.65;12.57;;;12.90;96.10;;;;;;5104079;28;20043;-69
2021/05/16 07:12:18;;;;;;;22.75;12.98;;;12.90;96.10;;;;;;5099148;28;20062;-69
2021/05/16 07:14:44;;;;;;;21.52;14.35;;;12.80;96.30;;;;;;5102648;28;20035;-69
2021/05/16 07:17:09;;;;;;;26.77;13.35;;;12.70;96.60;;;;;;5095425;28;20048;-69
2021/05/16 07:19:35;;;;;;;28.77;14.38;;;12.90;96.80;;;;;;5106338;28;20035;-68
2021/05/16 07:22:01;;;;;;;24.48;14.02;;;12.90;96.90;;;;;;5105017;28;20046;-68
2021/05/16 07:24:28;;;;;;;24.75;14.73;;;12.90;96.80;;;;;;5099157;28;20124;-68
2021/05/16 07:26:54;;;;;;;23.55;14.15;;;12.90;96.80;;;;;;5103330;28;20545;-68
2021/05/16 07:29:20;;;;;;;25.80;13.88;;;12.90;96.80;;;;;;5100712;28;20054;-69
2021/05/16 07:31:47;;;;;;;26.63;12.57;;;13.00;96.60;;;;;;5100212;28;20130;-69
2021/05/16 07:34:14;;;;;;;24.73;15.00;;;13.00;96.50;;;;;;5098397;28;20032;-68
2021/05/16 07:36:40;;;;;;;25.75;13.20;;;13.10;96.50;;;;;;5107452;28;20130;-68
2021/05/16 07:39:15;;;;;;;20.95;12.65;;;13.20;96.50;;;;;;5098342;28;20085;-68
2021/05/16 07:41:41;;;;;;;35.40;22.67;;;13.40;96.50;;;;;;5102562;28;20107;-68
2021/05/16 07:44:09;;;;;;;16.67;9.48;;;13.60;96.20;;;;;;5098149;28;20056;-68
2021/05/16 07:46:35;;;;;;;23.40;11.18;;;13.80;95.70;;;;;;5103443;28;20031;-68
2021/05/16 07:49:01;;;;;;;17.77;8.50;;;14.00;95.20;;;;;;5095551;28;20039;-68
2021/05/16 07:51:27;;;;;;;14.85;7.32;;;14.20;95.00;;;;;;5105117;28;20744;-68
2021/05/16 07:53:55;;;;;;;13.98;7.47;;;14.20;94.30;;;;;;5101203;28;20044;-68
2021/05/16 07:56:22;;;;;;;14.75;7.30;;;14.20;93.80;;;;;;5104874;28;20035;-68
2021/05/16 07:58:48;;;;;;;18.50;8.25;;;14.10;93.40;;;;;;5098238;28;20550;-68
2021/05/16 08:01:16;;;;;;;17.77;8.45;;;14.00;93.30;;;;;;5106116;28;20435;-68
2021/05/16 08:03:45;;;;;;;18.40;8.77;;;13.90;93.10;;;;;;5102787;28;20035;-68
2021/05/16 08:06:11;;;;;;;19.88;9.30;;;13.80;93.20;;;;;;5079863;28;20445;-68
2021/05/16 08:08:38;;;;;;;20.17;9.30;;;13.80;93.60;;;;;;5104102;28;20044;-68
2021/05/16 08:11:04;;;;;;;18.85;8.50;;;14.00;93.80;;;;;;5098958;28;20114;-68
2021/05/16 08:13:30;;;;;;;21.83;8.18;;;14.10;93.90;;;;;;5107302;28;20052;-68
2021/05/16 08:15:56;;;;;;;16.35;8.75;;;14.30;93.50;;;;;;5097581;28;20048;-69
2021/05/16 08:18:22;;;;;;;18.63;8.73;;;14.40;93.30;;;;;;5104708;28;20024;-69
2021/05/16 08:20:48;;;;;;;17.35;8.10;;;14.30;92.80;;;;;;5097014;28;20348;-69
2021/05/16 08:23:14;;;;;;;17.20;8.43;;;14.30;92.80;;;;;;5103094;28;20518;-68
2021/05/16 08:25:40;;;;;;;16.80;8.18;;;14.20;93.20;;;;;;5099167;28;20097;-68
2021/05/16 08:28:06;;;;;;;13.82;7.40;;;14.10;93.80;;;;;;5107192;28;20047;-68
2021/05/16 08:30:32;;;;;;;13.93;5.78;;;14.10;94.10;;;;;;5097238;28;20034;-68
2021/05/16 08:32:58;;;;;;;10.40;4.80;;;14.00;93.60;;;;;;5104260;28;20459;-68
2021/05/16 08:35:24;;;;;;;8.73;3.70;;;13.80;93.40;;;;;;5098926;28;20042;-68
2021/05/16 08:37:49;;;;;;;8.85;3.50;;;13.50;93.40;;;;;;5105709;28;20035;-67
2021/05/16 08:40:17;;;;;;;16.15;4.13;;;13.20;93.60;;;;;;5098586;28;20050;-68
2021/05/16 08:42:43;;;;;;;11.65;3.50;;;13.00;94.20;;;;;;5103448;28;20031;-67
2021/05/16 08:45:12;;;;;;;6.93;2.40;;;12.70;94.80;;;;;;5104011;28;20035;-67
2021/05/16 08:47:40;;;;;;;7.20;2.10;;;12.50;95.00;;;;;;5099199;28;20115;-68
2021/05/16 08:50:09;;;;;;;6.20;2.25;;;12.20;95.40;;;;;;5103171;28;20404;-69
2021/05/16 08:52:35;;;;;;;5.78;1.77;;;12.00;96.00;;;;;;5090112;28;20032;-68
2021/05/16 08:55:00;;;;;;;7.25;1.95;;;11.90;96.40;;;;;;5104122;28;20394;-68
2021/05/16 08:57:26;;;;;;;3.70;1.52;;;11.70;97.00;;;;;;5098860;28;20097;-68
2021/05/16 09:00:19;;;;;;;3.80;1.63;;;11.60;97.10;;;;;;5085739;28;20070;-68
2021/05/16 09:03:09;;;;;;;6.97;1.90;;;11.60;97.50;;;;;;5092650;28;20032;-68
2021/05/16 09:05:55;;;;;;;4.30;1.83;;;11.50;98.00;;;;;;5100828;28;20044;-68
2021/05/16 09:08:23;;;;;;;5.88;2.25;;;11.50;98.40;;;;;;5098756;28;20036;-68
2021/05/16 09:10:56;;;;;;;7.80;2.55;;;11.50;98.90;;;;;;5102253;28;20048;-67
2021/05/16 09:13:27;;;;;;;4.75;2.80;;;11.60;99.30;;;;;;5097953;28;20402;-68
2021/05/16 09:16:18;;;;;;;8.07;3.30;;;11.70;99.70;;;;;;5102001;28;20159;-68
2021/05/16 09:18:50;;;;;;;5.90;3.33;;;11.80;99.90;;;;;;5095586;28;20464;-68
2021/05/16 09:21:33;;;;;;;7.00;3.35;;;11.90;99.90;;;;;;5103928;28;20051;-68
2021/05/16 09:24:02;;;;;;;8.30;4.22;;;12.10;99.90;;;;;;5093567;28;20044;-68
2021/05/16 09:26:31;;;;;;;8.82;4.25;;;12.10;99.90;;;;;;5101478;28;20380;-68
2021/05/16 09:29:22;;;;;;;8.00;4.13;;;12.30;99.90;;;;;;5094422;28;20051;-68
2021/05/16 09:31:50;;;;;;;7.72;3.50;;;12.40;99.90;;;;;;5099965;28;20052;-68
2021/05/16 09:34:16;;;;;;;5.57;2.80;;;12.50;99.90;;;;;;5095764;28;20055;-68
2021/05/16 09:36:46;;;;;;;5.18;2.15;;;12.70;99.90;;;;;;5085015;28;20040;-68
2021/05/16 09:39:17;;;;;;;6.00;1.80;;;12.90;99.90;;;;;;5094409;28;20031;-68
2021/05/16 09:42:03;;;;;;;3.08;1.67;;;13.40;99.90;;;;;;5098745;28;20071;-68
2021/05/16 09:44:41;;;;;;;5.43;1.80;;;13.90;99.90;;;;;;5097526;28;20494;-68
2021/05/16 09:47:11;;;;;;;2.15;1.20;;;14.70;99.90;;;;;;5100949;28;20052;-68
2021/05/16 09:49:37;;;;;;;1.55;1.08;;;15.20;99.90;;;;;;5099305;28;20032;-68
2021/05/16 09:52:11;;;;;;;2.80;1.02;;;15.40;99.90;;;;;;5101023;28;20494;-68
2021/05/16 09:55:07;;;;;;;4.95;1.17;;;15.50;99.80;;;;;;5097467;28;20196;-68
2021/05/16 09:57:35;;;;;;;3.67;1.23;;;15.40;97.70;;;;;;5101900;28;20479;-68
2021/05/16 10:00:03;;;;;;;3.13;1.00;;;15.30;99.20;;;;;;5095382;28;20475;-68
2021/05/16 10:02:29;;;;;;;4.13;1.25;;;15.30;98.90;;;;;;5104602;28;20497;-67
2021/05/16 10:04:59;;;;;;;3.08;1.08;;;15.30;98.40;;;;;;5101626;28;20055;-67
2021/05/16 10:07:26;;;;;;;3.28;0.90;;;15.40;98.60;;;;;;5108220;28;20058;-68
2021/05/16 10:09:53;;;;;;;2.83;1.00;;;15.60;98.90;;;;;;5098452;28;20028;-68
2021/05/16 10:12:21;;;;;;;6.00;1.35;;;15.70;97.20;;;;;;5104088;28;20036;-68
2021/05/16 10:14:55;;;;;;;3.38;1.20;;;15.80;97.60;;;;;;5101198;28;20032;-68
2021/05/16 10:17:21;;;;;;;;;;;16.10;98.20;;;;;;5103171;28;20062;-67
2021/05/16 10:19:48;;;;;;;5.00;1.38;;;16.20;95.70;;;;;;5100510;28;19920;-68
2021/05/16 10:22:17;;;;;;;4.10;1.30;;;16.00;96.90;;;;;;5106580;28;20527;-68
2021/05/16 10:24:45;;;;;;;4.13;1.27;;;15.80;95.00;;;;;;5099117;28;20417;-68
2021/05/16 10:27:14;;;;;;;3.20;0.90;;;15.60;94.70;;;;;;5102006;28;20459;-68
2021/05/16 10:29:48;;;;;;;3.55;0.95;;;15.30;94.10;;;;;;5101555;28;20753;-68
2021/05/16 10:32:32;;;;;;;3.15;0.95;;;15.00;93.80;;;;;;5109624;28;20352;-66
2021/05/16 10:35:09;;;;;;;2.83;1.05;;;14.70;93.60;;;;;;5101467;28;20031;-66
2021/05/16 10:37:41;;;;;;;4.85;1.42;;;14.50;93.80;;;;;;5103734;28;20450;-66
2021/05/16 10:40:09;;;;;;;4.63;1.52;;;14.10;93.90;;;;;;5101655;28;20073;-67
2021/05/16 10:42:37;;;;;;;5.57;1.25;;;13.90;94.60;;;;;;5102677;28;20177;-66
2021/05/16 10:45:22;;;;;;;3.75;1.17;;;13.60;94.90;;;;;;5098760;28;20048;-67
2021/05/16 10:47:53;;;;;;;4.53;1.48;;;13.20;95.10;;;;;;5107466;28;20104;-67
2021/05/16 10:50:19;;;;;;;3.83;1.15;;;12.80;95.40;;;;;;5102091;28;20036;-67
2021/05/16 10:53:02;;;;;;;5.53;2.50;;;12.60;95.80;;;;;;5098302;28;20096;-67
2021/05/16 10:55:36;;;;;;;4.00;1.60;;;12.50;96.10;;;;;;5094549;28;20059;-67
2021/05/16 10:58:02;;;;;;;7.30;2.10;;;12.50;96.70;;;;;;5106303;28;20048;-66
2021/05/16 11:00:30;;;;;;;4.93;1.70;;;12.60;97.00;;;;;;5106422;28;20040;-66
2021/05/16 11:03:07;;;;;;;6.35;1.98;;;12.90;97.90;;;;;;5089958;28;20043;-66
2021/05/16 11:08:18;;;;;;;5.38;1.65;;;13.60;98.00;;;;;;5086168;28;20058;-67
2021/05/16 11:10:49;;;;;;;5.05;1.75;;;14.10;98.30;;;;;;5102230;28;20036;-67
2021/05/16 11:13:20;;;;;;;6.88;1.40;;;14.50;98.10;;;;;;5084722;28;20039;-67
2021/05/16 11:15:51;;;;;;;4.10;1.40;;;14.60;96.50;;;;;;5106917;28;20106;-67
2021/05/16 11:18:18;;;;;;;6.47;1.08;;;14.70;96.00;;;;;;5096021;28;20480;-68
2021/05/16 11:20:53;;;;;;;5.03;1.10;;;14.80;95.40;;;;;;5106072;28;20047;-68
2021/05/16 11:23:25;;;;;;;5.07;1.10;;;14.70;95.20;;;;;;5098418;28;20040;-68
2021/05/16 11:26:01;;;;;;;5.82;1.00;;;14.50;94.80;;;;;;5109109;28;20570;-68
2021/05/16 11:28:31;;;;;;;4.28;1.13;;;14.30;94.00;;;;;;5099419;28;20032;-68
2021/05/16 11:30:58;;;;;;;6.00;1.27;;;14.10;94.90;;;;;;5105798;28;20053;-68
2021/05/16 11:33:29;;;;;;;5.75;1.13;;;14.00;95.10;;;;;;5104372;28;20044;-68
2021/05/16 11:35:55;;;;;;;4.13;1.35;;;13.90;94.90;;;;;;5108083;28;20048;-67
2021/05/16 11:38:28;;;;;;;7.15;1.50;;;13.80;95.20;;;;;;5099742;28;20066;-67
2021/05/16 11:40:55;;;;;;;5.50;0.98;;;13.80;95.60;;;;;;5104759;28;20039;-68
2021/05/16 11:43:44;;;;;;;5.38;1.20;;;13.90;95.90;;;;;;5102992;28;20040;-68
2021/05/16 11:46:11;;;;;;;6.35;1.10;;;13.90;95.50;;;;;;5105160;28;20039;-67
2021/05/16 11:48:39;;;;;;;4.65;1.05;;;13.90;95.50;;;;;;5099959;28;20036;-67
2021/05/16 11:51:11;;;;;;;5.55;0.93;;;14.00;95.50;;;;;;5104542;28;20471;-68
2021/05/16 11:53:38;;;;;;;2.80;0.80;;;14.00;95.30;;;;;;5100870;28;20196;-68
2021/05/16 11:56:07;;;;;;;3.97;0.80;;;14.10;95.20;;;;;;5104739;28;20044;-68
2021/05/16 11:58:37;;;;;;;7.15;1.30;;;14.20;95.00;;;;;;5100264;28;20408;-68
2021/05/16 12:01:11;;;;;;;4.30;0.93;;;14.40;95.50;;;;;;5101448;28;20031;-68
2021/05/16 12:03:37;;;;;;;5.32;0.95;;;14.60;95.10;;;;;;5099487;28;20053;-68
2021/05/16 12:06:07;;;;;;;4.80;1.10;;;14.60;94.70;;;;;;5090443;28;20052;-68
2021/05/16 12:08:33;;;;;;;7.15;1.48;;;14.50;94.40;;;;;;5078564;28;20044;-68
2021/05/16 12:11:11;;;;;;;4.55;1.25;;;14.30;94.20;;;;;;5081979;28;20043;-68
2021/05/16 12:13:38;;;;;;;10.13;2.38;;;14.20;94.20;;;;;;5079254;28;20036;-67
2021/05/16 12:16:13;;;;;;;28.13;3.97;;;13.90;94.30;;;;;;5081069;28;20039;-64
2021/05/16 12:18:43;;;;;;;5.65;1.27;;;13.70;95.70;;;;;;5080539;28;20508;-65
2021/05/16 12:21:09;;;;;;;9.98;1.75;;;13.40;96.30;;;;;;5085366;28;20437;-65
2021/05/16 12:23:37;;;;;;;6.88;1.35;;;13.20;97.00;;;;;;5083497;28;20040;-64
2021/05/16 12:26:03;;;;;;;7.97;1.98;;;12.80;97.80;;;;;;5075377;28;20480;-65
2021/05/16 12:28:30;;;;;;;8.20;1.85;;;12.60;98.20;;;;;;5085256;28;20103;-65
2021/05/16 12:30:59;;;;;;;16.58;2.67;;;12.50;98.80;;;;;;5076056;28;20080;-64
2021/05/16 12:33:25;;;;;;;38.25;24.67;;;12.30;99.00;;;;;;5082549;28;20036;-64
2021/05/16 12:35:51;;;;;;;9.65;2.15;;;12.10;99.10;;;;;;5079410;28;20135;-65
2021/05/16 12:38:17;;;;;;;19.42;3.65;;;12.00;99.40;;;;;;5081301;28;20132;-64
2021/05/16 12:40:44;;;;;;;8.73;2.20;;;11.90;99.60;;;;;;5073245;28;20480;-65
2021/05/16 12:43:13;;;;;;;8.68;1.58;;;11.80;99.90;;;;;;5082950;28;20111;-66